createdAt,value
2022-11-22T00:05:51.048Z,4.3
2022-11-22T00:25:52.027Z,4.5
2022-11-22T00:35:52.556Z,4.5
2022-11-22T00:45:53.293Z,4.7
2022-11-22T00:55:54.347Z,4.9
2022-11-22T01:05:54.544Z,5.1
2022-11-22T01:15:55.261Z,5.1
2022-11-22T01:25:56.233Z,5.1
2022-11-22T01:35:56.365Z,5.2
2022-11-22T01:45:56.498Z,5.1
2022-11-22T01:55:56.612Z,5.1
2022-11-22T02:05:57.214Z,5.2
2022-11-22T02:15:58.243Z,5.2
2022-11-22T02:35:59.583Z,5.3
2022-11-22T02:46:00.142Z,5.3
2022-11-22T02:56:00.376Z,5.3
2022-11-22T03:06:01.074Z,5.4
2022-11-22T03:16:01.671Z,5.6
2022-11-22T03:26:02.502Z,5.7
2022-11-22T03:36:03.307Z,5.9
2022-11-22T03:46:03.462Z,6.2
2022-11-22T03:56:04.433Z,6.6
2022-11-22T04:06:04.555Z,6.9
2022-11-22T04:16:05.600Z,7
2022-11-22T04:26:06.244Z,7
2022-11-22T04:36:10.317Z,6.9
2022-11-22T04:46:06.883Z,6.9
2022-11-22T04:56:07.073Z,6.7
2022-11-22T05:06:07.399Z,6.5
2022-11-22T05:16:07.538Z,6.4
2022-11-22T05:26:07.715Z,6.1
2022-11-22T05:46:09.176Z,5.8
2022-11-22T05:56:09.893Z,5.6
2022-11-22T06:06:10.844Z,5.5
2022-11-22T06:16:11.281Z,5.3
2022-11-22T06:36:12.943Z,5.1
2022-11-22T06:46:13.881Z,5.1
2022-11-22T06:56:14.718Z,4.7
2022-11-22T07:06:14.884Z,4.3
2022-11-22T07:16:15.899Z,3.9
2022-11-22T07:26:16.947Z,3.7
2022-11-22T07:46:18.586Z,3.6
2022-11-22T07:56:19.044Z,3.6
2022-11-22T08:06:19.256Z,3.4
2022-11-22T08:16:19.449Z,3.8
2022-11-22T08:26:19.715Z,5
2022-11-22T08:46:20.899Z,6.1
2022-11-22T08:56:21.518Z,6.3
2022-11-22T09:36:24.291Z,7.5
2022-11-22T09:56:25.159Z,8
2022-11-22T10:06:25.454Z,8.2
2022-11-22T10:16:25.606Z,8.1
2022-11-22T10:26:25.756Z,8.1
2022-11-22T10:36:26.332Z,8.1
2022-11-22T10:56:27.519Z,8
2022-11-22T11:06:37.760Z,8
2022-11-22T11:16:29.549Z,8.1
2022-11-22T11:26:30.371Z,8.3
2022-11-22T11:36:31.234Z,8.3
2022-11-22T11:46:31.482Z,8.2
2022-11-22T12:06:32.872Z,8.2
2022-11-22T12:16:33.273Z,8.3
2022-11-22T12:26:33.625Z,8.4
2022-11-22T12:36:34.504Z,8.4
2022-11-22T12:46:39.531Z,8.4
2022-11-22T12:56:35.789Z,8.5
2022-11-22T13:06:36.818Z,8.6
2022-11-22T13:16:37.481Z,8.7
2022-11-22T13:26:38.529Z,8.7
2022-11-22T13:36:38.825Z,8.8
2022-11-22T13:46:39.100Z,8.8
2022-11-22T13:56:39.243Z,8.8
2022-11-22T14:26:41.451Z,8.8
2022-11-22T14:36:42.458Z,8.8
2022-11-22T14:46:53.037Z,8.8
2022-11-22T14:56:44.115Z,8.7
2022-11-22T16:06:48.512Z,8.3
2022-11-22T16:16:49.101Z,8.4
2022-11-22T16:26:49.613Z,8.3
2022-11-22T16:36:49.828Z,8.2
2022-11-22T16:46:50.150Z,8.2
2022-11-22T16:56:50.438Z,8.2
2022-11-22T17:06:50.636Z,8.2
2022-11-22T17:16:51.488Z,8.2
2022-11-22T17:26:51.918Z,8.2
2022-11-22T17:46:53.133Z,8.2
2022-11-22T17:56:53.264Z,8.2
2022-11-22T18:06:53.776Z,8
2022-11-22T18:16:54.635Z,7.8
2022-11-22T18:26:55.152Z,7.6
2022-11-22T18:37:00.665Z,7.4
2022-11-22T19:06:57.961Z,7.2
2022-11-22T19:16:58.879Z,7.1
2022-11-22T19:26:59.376Z,7.1
2022-11-22T19:36:59.804Z,7.1
2022-11-22T19:47:00.821Z,7.1
2022-11-22T19:57:01.482Z,7.1
2022-11-22T20:07:02.196Z,7.1
2022-11-22T20:17:02.906Z,7.2
2022-11-22T20:27:03.772Z,7.2
2022-11-22T20:47:04.412Z,7.3
2022-11-22T20:57:05.509Z,7.3
2022-11-22T21:07:06.558Z,7.3
2022-11-22T21:17:35.784Z,7.4
2022-11-22T21:27:07.715Z,7.5
2022-11-22T21:37:08.562Z,7.5
2022-11-22T21:47:09.390Z,7.6
2022-11-22T21:57:10.392Z,7.6
2022-11-22T22:07:23.853Z,7.6
2022-11-22T22:17:11.892Z,7.6
2022-11-22T22:27:12.223Z,7.6
2022-11-22T22:37:12.353Z,7.6
2022-11-22T22:47:13.008Z,7.7
2022-11-22T22:57:13.382Z,7.8
2022-11-22T23:07:13.917Z,7.8
2022-11-22T23:17:14.504Z,7.8
2022-11-22T23:27:14.778Z,7.8
2022-11-22T23:37:15.399Z,7.7
2022-11-22T23:47:16.062Z,7.7
2022-11-22T23:57:16.703Z,7.6
